sensor_id;sensor_type;location;lat;lon;timestamp;pressure;altitude;pressure_sealevel;temperature;humidity
70488;BME280;57976;48.174;16.370;2022-12-16T00:00:47;98198.52;;;2.32;100.00
70488;BME280;57976;48.174;16.370;2022-12-16T00:02:50;98190.32;;;2.27;100.00
70488;BME280;57976;48.174;16.370;2022-12-16T00:04:53;98190.24;;;2.23;100.00
70488;BME280;57976;48.174;16.370;2022-12-16T00:06:56;98180.54;;;2.20;100.00
70488;BME280;57976;48.174;16.370;2022-12-16T00:09:01;98168.16;;;2.14;100.00
70488;BME280;57976;48.174;16.370;2022-12-16T00:11:05;98172.84;;;2.07;100.00
70488;BME280;57976;48.174;16.370;2022-12-16T00:13:08;98171.53;;;2.04;100.00
70488;BME280;57976;48.174;16.370;2022-12-16T00:15:12;98177.92;;;2.04;100.00
70488;BME280;57976;48.174;16.370;2022-12-16T00:17:15;98194.40;;;2.02;100.00
70488;BME280;57976;48.174;16.370;2022-12-16T00:19:18;98191.52;;;2.01;100.00
70488;BME280;57976;48.174;16.370;2022-12-16T00:21:21;98184.36;;;2.01;100.00
70488;BME280;57976;48.174;16.370;2022-12-16T00:23:23;98166.62;;;1.98;100.00
70488;BME280;57976;48.174;16.370;2022-12-16T00:25:26;98165.70;;;1.96;100.00
70488;BME280;57976;48.174;16.370;2022-12-16T00:27:29;98160.89;;;1.96;100.00
70488;BME280;57976;48.174;16.370;2022-12-16T00:29:32;98153.11;;;1.96;100.00
70488;BME280;57976;48.174;16.370;2022-12-16T00:31:35;98139.79;;;1.96;100.00
70488;BME280;57976;48.174;16.370;2022-12-16T00:33:38;98133.25;;;1.98;100.00
70488;BME280;57976;48.174;16.370;2022-12-16T00:35:40;98135.82;;;2.00;100.00
70488;BME280;57976;48.174;16.370;2022-12-16T00:37:48;98138.06;;;1.99;100.00
70488;BME280;57976;48.174;16.370;2022-12-16T00:39:50;98142.58;;;1.98;100.00
70488;BME280;57976;48.174;16.370;2022-12-16T00:41:54;98144.13;;;2.01;100.00
70488;BME280;57976;48.174;16.370;2022-12-16T00:43:57;98148.47;;;2.03;100.00
70488;BME280;57976;48.174;16.370;2022-12-16T00:45:59;98153.24;;;2.05;100.00
70488;BME280;57976;48.174;16.370;2022-12-16T00:48:03;98151.89;;;2.06;100.00
70488;BME280;57976;48.174;16.370;2022-12-16T00:50:08;98138.55;;;2.08;100.00
70488;BME280;57976;48.174;16.370;2022-12-16T00:52:11;98128.83;;;2.09;100.00
70488;BME280;57976;48.174;16.370;2022-12-16T00:54:14;98115.85;;;2.09;100.00
70488;BME280;57976;48.174;16.370;2022-12-16T00:56:17;98103.00;;;2.11;100.00
70488;BME280;57976;48.174;16.370;2022-12-16T00:58:20;98099.94;;;2.12;100.00
70488;BME280;57976;48.174;16.370;2022-12-16T01:00:23;98099.94;;;2.12;100.00
70488;BME280;57976;48.174;16.370;2022-12-16T01:02:25;98098.72;;;2.13;100.00
70488;BME280;57976;48.174;16.370;2022-12-16T01:04:29;98096.45;;;2.16;100.00
70488;BME280;57976;48.174;16.370;2022-12-16T01:06:31;98094.67;;;2.21;100.00
70488;BME280;57976;48.174;16.370;2022-12-16T01:08:34;98097.04;;;2.25;100.00
70488;BME280;57976;48.174;16.370;2022-12-16T01:10:36;98099.46;;;2.25;100.00
70488;BME280;57976;48.174;16.370;2022-12-16T01:12:40;98088.77;;;2.26;100.00
70488;BME280;57976;48.174;16.370;2022-12-16T01:14:42;98092.29;;;2.28;100.00
70488;BME280;57976;48.174;16.370;2022-12-16T01:16:45;98086.95;;;2.29;100.00
70488;BME280;57976;48.174;16.370;2022-12-16T01:18:48;98078.61;;;2.28;100.00
70488;BME280;57976;48.174;16.370;2022-12-16T01:20:50;98072.98;;;2.27;100.00
70488;BME280;57976;48.174;16.370;2022-12-16T01:22:53;98075.88;;;2.26;100.00
70488;BME280;57976;48.174;16.370;2022-12-16T01:24:57;98079.94;;;2.27;100.00
70488;BME280;57976;48.174;16.370;2022-12-16T01:26:59;98079.17;;;2.31;100.00
70488;BME280;57976;48.174;16.370;2022-12-16T01:29:03;98072.66;;;2.30;100.00
70488;BME280;57976;48.174;16.370;2022-12-16T01:31:05;98072.70;;;2.31;100.00
70488;BME280;57976;48.174;16.370;2022-12-16T01:33:08;98076.70;;;2.36;100.00
70488;BME280;57976;48.174;16.370;2022-12-16T01:35:12;98079.73;;;2.36;100.00
70488;BME280;57976;48.174;16.370;2022-12-16T01:37:35;98076.98;;;2.41;100.00
70488;BME280;57976;48.174;16.370;2022-12-16T01:39:37;98068.35;;;2.45;100.00
70488;BME280;57976;48.174;16.370;2022-12-16T01:41:40;98058.20;;;2.49;100.00
70488;BME280;57976;48.174;16.370;2022-12-16T01:43:44;98061.62;;;2.49;100.00
70488;BME280;57976;48.174;16.370;2022-12-16T01:45:47;98063.02;;;2.46;100.00
70488;BME280;57976;48.174;16.370;2022-12-16T01:47:51;98057.10;;;2.41;100.00
70488;BME280;57976;48.174;16.370;2022-12-16T01:50:00;98048.62;;;2.39;100.00
70488;BME280;57976;48.174;16.370;2022-12-16T01:52:05;98049.46;;;2.39;100.00
70488;BME280;57976;48.174;16.370;2022-12-16T01:54:12;98043.77;;;2.38;100.00
70488;BME280;57976;48.174;16.370;2022-12-16T01:56:17;98041.36;;;2.41;100.00
70488;BME280;57976;48.174;16.370;2022-12-16T01:58:26;98033.17;;;2.45;100.00
70488;BME280;57976;48.174;16.370;2022-12-16T02:00:31;98025.77;;;2.47;100.00
70488;BME280;57976;48.174;16.370;2022-12-16T02:02:34;98015.90;;;2.50;100.00
70488;BME280;57976;48.174;16.370;2022-12-16T02:04:40;98015.38;;;2.53;100.00
70488;BME280;57976;48.174;16.370;2022-12-16T02:06:43;98013.25;;;2.55;100.00
70488;BME280;57976;48.174;16.370;2022-12-16T02:08:46;98010.48;;;2.53;100.00
70488;BME280;57976;48.174;16.370;2022-12-16T02:11:05;98000.05;;;2.51;100.00
70488;BME280;57976;48.174;16.370;2022-12-16T02:13:18;97993.92;;;2.51;100.00
70488;BME280;57976;48.174;16.370;2022-12-16T02:15:34;97990.21;;;2.48;100.00
70488;BME280;57976;48.174;16.370;2022-12-16T02:17:46;97992.11;;;2.48;100.00
70488;BME280;57976;48.174;16.370;2022-12-16T02:20:09;97997.77;;;2.48;100.00
70488;BME280;57976;48.174;16.370;2022-12-16T02:22:28;98008.98;;;2.47;100.00
70488;BME280;57976;48.174;16.370;2022-12-16T02:24:57;98015.34;;;2.45;100.00
70488;BME280;57976;48.174;16.370;2022-12-16T02:27:44;98024.35;;;2.41;100.00
70488;BME280;57976;48.174;16.370;2022-12-16T02:32:18;98032.73;;;2.41;100.00
70488;BME280;57976;48.174;16.370;2022-12-16T02:34:27;98037.79;;;2.42;100.00
70488;BME280;57976;48.174;16.370;2022-12-16T02:36:45;98038.94;;;2.44;100.00
70488;BME280;57976;48.174;16.370;2022-12-16T02:39:00;98040.00;;;2.45;100.00
70488;BME280;57976;48.174;16.370;2022-12-16T02:41:11;98044.02;;;2.44;100.00
70488;BME280;57976;48.174;16.370;2022-12-16T02:43:26;98036.34;;;2.45;100.00
70488;BME280;57976;48.174;16.370;2022-12-16T02:45:34;98029.66;;;2.48;100.00
70488;BME280;57976;48.174;16.370;2022-12-16T02:47:38;98022.04;;;2.49;100.00
70488;BME280;57976;48.174;16.370;2022-12-16T02:49:47;98029.34;;;2.51;100.00
70488;BME280;57976;48.174;16.370;2022-12-16T02:51:50;98024.83;;;2.52;100.00
70488;BME280;57976;48.174;16.370;2022-12-16T02:53:54;98026.11;;;2.54;100.00
70488;BME280;57976;48.174;16.370;2022-12-16T02:56:03;98022.80;;;2.55;100.00
70488;BME280;57976;48.174;16.370;2022-12-16T02:58:14;98020.98;;;2.56;100.00
70488;BME280;57976;48.174;16.370;2022-12-16T03:00:19;98012.44;;;2.57;100.00
70488;BME280;57976;48.174;16.370;2022-12-16T03:02:26;97990.45;;;2.58;100.00
70488;BME280;57976;48.174;16.370;2022-12-16T03:04:37;97976.68;;;2.63;100.00
70488;BME280;57976;48.174;16.370;2022-12-16T03:06:48;97963.95;;;2.64;100.00
70488;BME280;57976;48.174;16.370;2022-12-16T03:08:54;97962.63;;;2.65;100.00
70488;BME280;57976;48.174;16.370;2022-12-16T03:11:00;97956.90;;;2.65;100.00
70488;BME280;57976;48.174;16.370;2022-12-16T03:13:04;97957.20;;;2.66;100.00
70488;BME280;57976;48.174;16.370;2022-12-16T03:15:10;97949.95;;;2.66;100.00
70488;BME280;57976;48.174;16.370;2022-12-16T03:17:15;97943.58;;;2.64;100.00
70488;BME280;57976;48.174;16.370;2022-12-16T03:19:20;97939.96;;;2.63;100.00
70488;BME280;57976;48.174;16.370;2022-12-16T03:21:28;97928.85;;;2.64;100.00
70488;BME280;57976;48.174;16.370;2022-12-16T03:23:35;97921.39;;;2.65;100.00
70488;BME280;57976;48.174;16.370;2022-12-16T03:25:42;97919.02;;;2.67;100.00
70488;BME280;57976;48.174;16.370;2022-12-16T03:27:51;97907.92;;;2.66;100.00
70488;BME280;57976;48.174;16.370;2022-12-16T03:30:03;97903.37;;;2.66;100.00
70488;BME280;57976;48.174;16.370;2022-12-16T03:32:10;97899.80;;;2.65;100.00
70488;BME280;57976;48.174;16.370;2022-12-16T03:34:19;97890.55;;;2.63;100.00
70488;BME280;57976;48.174;16.370;2022-12-16T03:36:26;97886.83;;;2.64;100.00
70488;BME280;57976;48.174;16.370;2022-12-16T03:38:31;97892.09;;;2.62;100.00
70488;BME280;57976;48.174;16.370;2022-12-16T03:40:36;97893.73;;;2.61;100.00
70488;BME280;57976;48.174;16.370;2022-12-16T03:42:41;97893.84;;;2.60;100.00
70488;BME280;57976;48.174;16.370;2022-12-16T03:44:45;97890.77;;;2.61;100.00
70488;BME280;57976;48.174;16.370;2022-12-16T03:46:49;97880.64;;;2.62;100.00
70488;BME280;57976;48.174;16.370;2022-12-16T03:48:51;97869.09;;;2.60;100.00
70488;BME280;57976;48.174;16.370;2022-12-16T03:50:54;97866.91;;;2.61;100.00
70488;BME280;57976;48.174;16.370;2022-12-16T03:52:57;97860.02;;;2.64;100.00
70488;BME280;57976;48.174;16.370;2022-12-16T03:55:00;97846.98;;;2.63;100.00
70488;BME280;57976;48.174;16.370;2022-12-16T03:57:03;97848.70;;;2.62;100.00
70488;BME280;57976;48.174;16.370;2022-12-16T03:59:06;97839.19;;;2.58;100.00
70488;BME280;57976;48.174;16.370;2022-12-16T04:01:09;97848.08;;;2.56;100.00
70488;BME280;57976;48.174;16.370;2022-12-16T04:03:12;97851.33;;;2.55;100.00
70488;BME280;57976;48.174;16.370;2022-12-16T04:05:16;97852.91;;;2.57;100.00
70488;BME280;57976;48.174;16.370;2022-12-16T04:07:19;97854.23;;;2.60;100.00
70488;BME280;57976;48.174;16.370;2022-12-16T04:09:21;97856.31;;;2.60;100.00
70488;BME280;57976;48.174;16.370;2022-12-16T04:11:24;97866.48;;;2.58;100.00
70488;BME280;57976;48.174;16.370;2022-12-16T04:13:26;97875.10;;;2.60;100.00
70488;BME280;57976;48.174;16.370;2022-12-16T04:15:29;97878.73;;;2.62;100.00
70488;BME280;57976;48.174;16.370;2022-12-16T04:17:32;97871.17;;;2.67;100.00
70488;BME280;57976;48.174;16.370;2022-12-16T04:19:36;97861.98;;;2.70;100.00
70488;BME280;57976;48.174;16.370;2022-12-16T04:21:39;97855.74;;;2.72;100.00
70488;BME280;57976;48.174;16.370;2022-12-16T04:23:46;97855.06;;;2.73;100.00
70488;BME280;57976;48.174;16.370;2022-12-16T04:25:50;97857.98;;;2.73;100.00
70488;BME280;57976;48.174;16.370;2022-12-16T04:27:52;97855.52;;;2.73;100.00
70488;BME280;57976;48.174;16.370;2022-12-16T04:29:55;97852.98;;;2.71;100.00
70488;BME280;57976;48.174;16.370;2022-12-16T04:31:58;97854.79;;;2.69;100.00
70488;BME280;57976;48.174;16.370;2022-12-16T04:34:02;97846.84;;;2.67;100.00
70488;BME280;57976;48.174;16.370;2022-12-16T04:36:05;97838.10;;;2.67;100.00
70488;BME280;57976;48.174;16.370;2022-12-16T04:38:08;97841.98;;;2.66;100.00
70488;BME280;57976;48.174;16.370;2022-12-16T04:40:12;97843.48;;;2.67;100.00
70488;BME280;57976;48.174;16.370;2022-12-16T04:42:14;97832.86;;;2.67;100.00
70488;BME280;57976;48.174;16.370;2022-12-16T04:44:17;97826.66;;;2.64;100.00
70488;BME280;57976;48.174;16.370;2022-12-16T04:46:20;97839.59;;;2.62;100.00
70488;BME280;57976;48.174;16.370;2022-12-16T04:48:22;97839.36;;;2.59;100.00
70488;BME280;57976;48.174;16.370;2022-12-16T04:50:25;97836.53;;;2.60;100.00
70488;BME280;57976;48.174;16.370;2022-12-16T04:52:30;97827.92;;;2.60;100.00
70488;BME280;57976;48.174;16.370;2022-12-16T04:54:33;97825.67;;;2.58;100.00
70488;BME280;57976;48.174;16.370;2022-12-16T04:56:36;97825.40;;;2.58;100.00
70488;BME280;57976;48.174;16.370;2022-12-16T04:58:38;97828.94;;;2.60;100.00
70488;BME280;57976;48.174;16.370;2022-12-16T05:00:42;97825.13;;;2.64;100.00
70488;BME280;57976;48.174;16.370;2022-12-16T05:02:47;97820.58;;;2.67;100.00
70488;BME280;57976;48.174;16.370;2022-12-16T05:04:50;97827.54;;;2.70;100.00
70488;BME280;57976;48.174;16.370;2022-12-16T05:06:53;97828.38;;;2.74;100.00
70488;BME280;57976;48.174;16.370;2022-12-16T05:08:55;97843.73;;;2.79;100.00
70488;BME280;57976;48.174;16.370;2022-12-16T05:10:58;97839.30;;;2.84;100.00
70488;BME280;57976;48.174;16.370;2022-12-16T05:13:01;97831.15;;;2.90;100.00
70488;BME280;57976;48.174;16.370;2022-12-16T05:15:05;97834.34;;;2.94;100.00
70488;BME280;57976;48.174;16.370;2022-12-16T05:17:08;97839.63;;;2.96;100.00
70488;BME280;57976;48.174;16.370;2022-12-16T05:19:11;97848.52;;;3.00;100.00
70488;BME280;57976;48.174;16.370;2022-12-16T05:21:14;97852.65;;;3.05;100.00
70488;BME280;57976;48.174;16.370;2022-12-16T05:23:16;97852.65;;;3.10;100.00
70488;BME280;57976;48.174;16.370;2022-12-16T05:25:19;97854.63;;;3.14;100.00
70488;BME280;57976;48.174;16.370;2022-12-16T05:27:22;97852.34;;;3.16;100.00
70488;BME280;57976;48.174;16.370;2022-12-16T05:29:25;97863.13;;;3.14;100.00
70488;BME280;57976;48.174;16.370;2022-12-16T05:31:27;97873.54;;;3.14;100.00
70488;BME280;57976;48.174;16.370;2022-12-16T05:33:30;97879.73;;;3.14;100.00
70488;BME280;57976;48.174;16.370;2022-12-16T05:35:33;97887.54;;;3.16;100.00
70488;BME280;57976;48.174;16.370;2022-12-16T05:37:36;97895.94;;;3.17;100.00
70488;BME280;57976;48.174;16.370;2022-12-16T05:39:39;97900.74;;;3.21;100.00
70488;BME280;57976;48.174;16.370;2022-12-16T05:41:44;97905.61;;;3.23;100.00
70488;BME280;57976;48.174;16.370;2022-12-16T05:43:47;97907.20;;;3.23;100.00
70488;BME280;57976;48.174;16.370;2022-12-16T05:45:49;97900.31;;;3.26;100.00
70488;BME280;57976;48.174;16.370;2022-12-16T05:47:52;97903.21;;;3.31;100.00
70488;BME280;57976;48.174;16.370;2022-12-16T05:49:54;97909.13;;;3.35;100.00
70488;BME280;57976;48.174;16.370;2022-12-16T05:51:57;97923.23;;;3.33;100.00
70488;BME280;57976;48.174;16.370;2022-12-16T05:54:00;97931.64;;;3.32;100.00
70488;BME280;57976;48.174;16.370;2022-12-16T05:56:03;97937.73;;;3.32;100.00
70488;BME280;57976;48.174;16.370;2022-12-16T05:58:05;97939.73;;;3.35;100.00
70488;BME280;57976;48.174;16.370;2022-12-16T06:00:11;97942.20;;;3.40;100.00
70488;BME280;57976;48.174;16.370;2022-12-16T06:02:14;97943.30;;;3.45;100.00
70488;BME280;57976;48.174;16.370;2022-12-16T06:04:17;97935.91;;;3.48;100.00
70488;BME280;57976;48.174;16.370;2022-12-16T06:06:20;97932.44;;;3.45;100.00
70488;BME280;57976;48.174;16.370;2022-12-16T06:08:23;97932.66;;;3.42;100.00
70488;BME280;57976;48.174;16.370;2022-12-16T06:10:25;97935.86;;;3.45;100.00
70488;BME280;57976;48.174;16.370;2022-12-16T06:12:28;97939.66;;;3.45;100.00
70488;BME280;57976;48.174;16.370;2022-12-16T06:14:31;97940.73;;;3.46;100.00
70488;BME280;57976;48.174;16.370;2022-12-16T06:16:33;97943.29;;;3.48;100.00
70488;BME280;57976;48.174;16.370;2022-12-16T06:18:36;97941.42;;;3.48;100.00
70488;BME280;57976;48.174;16.370;2022-12-16T06:20:39;97951.86;;;3.50;100.00
70488;BME280;57976;48.174;16.370;2022-12-16T06:22:41;97958.61;;;3.53;100.00
70488;BME280;57976;48.174;16.370;2022-12-16T06:24:44;97965.24;;;3.58;100.00
70488;BME280;57976;48.174;16.370;2022-12-16T06:26:47;97971.34;;;3.61;100.00
70488;BME280;57976;48.174;16.370;2022-12-16T06:28:49;97980.95;;;3.58;100.00
70488;BME280;57976;48.174;16.370;2022-12-16T06:30:52;97991.49;;;3.54;100.00
70488;BME280;57976;48.174;16.370;2022-12-16T06:32:57;97991.25;;;3.53;100.00
70488;BME280;57976;48.174;16.370;2022-12-16T06:35:00;97990.55;;;3.53;100.00
70488;BME280;57976;48.174;16.370;2022-12-16T06:37:03;97989.89;;;3.51;100.00
70488;BME280;57976;48.174;16.370;2022-12-16T06:39:06;98000.39;;;3.48;100.00
70488;BME280;57976;48.174;16.370;2022-12-16T06:41:11;97995.23;;;3.47;100.00
70488;BME280;57976;48.174;16.370;2022-12-16T06:43:14;97995.71;;;3.46;100.00
70488;BME280;57976;48.174;16.370;2022-12-16T06:45:16;98000.23;;;3.45;100.00
70488;BME280;57976;48.174;16.370;2022-12-16T06:47:19;98006.16;;;3.46;100.00
70488;BME280;57976;48.174;16.370;2022-12-16T06:49:22;98010.89;;;3.45;100.00
70488;BME280;57976;48.174;16.370;2022-12-16T06:51:24;98020.36;;;3.45;100.00
70488;BME280;57976;48.174;16.370;2022-12-16T06:53:27;98018.20;;;3.43;100.00
70488;BME280;57976;48.174;16.370;2022-12-16T06:55:30;98022.34;;;3.39;100.00
70488;BME280;57976;48.174;16.370;2022-12-16T06:57:32;98026.80;;;3.36;100.00
70488;BME280;57976;48.174;16.370;2022-12-16T06:59:35;98023.81;;;3.33;100.00
70488;BME280;57976;48.174;16.370;2022-12-16T07:01:37;98029.75;;;3.28;100.00
70488;BME280;57976;48.174;16.370;2022-12-16T07:03:40;98029.30;;;3.24;100.00
70488;BME280;57976;48.174;16.370;2022-12-16T07:05:44;98046.35;;;3.22;100.00
70488;BME280;57976;48.174;16.370;2022-12-16T07:07:47;98051.95;;;3.18;100.00
70488;BME280;57976;48.174;16.370;2022-12-16T07:09:50;98056.21;;;3.16;100.00
70488;BME280;57976;48.174;16.370;2022-12-16T07:11:53;98058.35;;;3.15;100.00
70488;BME280;57976;48.174;16.370;2022-12-16T07:13:56;98064.45;;;3.11;100.00
70488;BME280;57976;48.174;16.370;2022-12-16T07:15:58;98069.78;;;3.10;100.00
70488;BME280;57976;48.174;16.370;2022-12-16T07:18:01;98075.33;;;3.11;100.00
70488;BME280;57976;48.174;16.370;2022-12-16T07:20:05;98080.33;;;3.12;100.00
70488;BME280;57976;48.174;16.370;2022-12-16T07:22:08;98083.42;;;3.11;100.00
70488;BME280;57976;48.174;16.370;2022-12-16T07:24:11;98082.52;;;3.09;100.00
70488;BME280;57976;48.174;16.370;2022-12-16T07:26:13;98090.13;;;3.09;100.00
70488;BME280;57976;48.174;16.370;2022-12-16T07:28:16;98094.14;;;3.06;100.00
70488;BME280;57976;48.174;16.370;2022-12-16T07:30:19;98095.27;;;3.05;100.00
70488;BME280;57976;48.174;16.370;2022-12-16T07:32:21;98094.21;;;3.03;100.00
70488;BME280;57976;48.174;16.370;2022-12-16T07:34:24;98091.97;;;2.98;100.00
70488;BME280;57976;48.174;16.370;2022-12-16T07:36:27;98099.68;;;2.93;100.00
70488;BME280;57976;48.174;16.370;2022-12-16T07:38:29;98104.48;;;2.91;100.00
70488;BME280;57976;48.174;16.370;2022-12-16T07:40:32;98108.61;;;2.89;100.00
70488;BME280;57976;48.174;16.370;2022-12-16T07:42:34;98115.14;;;2.90;100.00
70488;BME280;57976;48.174;16.370;2022-12-16T07:44:37;98122.06;;;2.91;100.00
70488;BME280;57976;48.174;16.370;2022-12-16T07:46:40;98126.05;;;2.90;100.00
70488;BME280;57976;48.174;16.370;2022-12-16T07:48:43;98134.10;;;2.87;100.00
70488;BME280;57976;48.174;16.370;2022-12-16T07:50:45;98134.36;;;2.85;100.00
70488;BME280;57976;48.174;16.370;2022-12-16T07:52:54;98139.40;;;2.84;100.00
70488;BME280;57976;48.174;16.370;2022-12-16T07:54:58;98140.67;;;2.82;100.00
70488;BME280;57976;48.174;16.370;2022-12-16T07:57:01;98144.76;;;2.82;100.00
70488;BME280;57976;48.174;16.370;2022-12-16T07:59:04;98151.81;;;2.83;100.00
70488;BME280;57976;48.174;16.370;2022-12-16T08:01:07;98158.34;;;2.81;100.00
70488;BME280;57976;48.174;16.370;2022-12-16T08:03:12;98166.56;;;2.82;100.00
70488;BME280;57976;48.174;16.370;2022-12-16T08:05:15;98165.36;;;2.82;100.00
70488;BME280;57976;48.174;16.370;2022-12-16T08:07:17;98154.79;;;2.82;100.00
70488;BME280;57976;48.174;16.370;2022-12-16T08:09:20;98139.70;;;2.78;100.00
70488;BME280;57976;48.174;16.370;2022-12-16T08:11:23;98148.46;;;2.78;100.00
70488;BME280;57976;48.174;16.370;2022-12-16T08:13:25;98157.23;;;2.75;100.00
70488;BME280;57976;48.174;16.370;2022-12-16T08:15:28;98160.85;;;2.73;100.00
70488;BME280;57976;48.174;16.370;2022-12-16T08:17:31;98163.77;;;2.71;100.00
70488;BME280;57976;48.174;16.370;2022-12-16T08:19:33;98167.73;;;2.70;100.00
70488;BME280;57976;48.174;16.370;2022-12-16T08:21:36;98157.83;;;2.69;100.00
70488;BME280;57976;48.174;16.370;2022-12-16T08:23:39;98157.33;;;2.67;100.00
70488;BME280;57976;48.174;16.370;2022-12-16T08:25:42;98173.55;;;2.65;100.00
70488;BME280;57976;48.174;16.370;2022-12-16T08:27:44;98179.95;;;2.64;100.00
70488;BME280;57976;48.174;16.370;2022-12-16T08:29:47;98191.64;;;2.63;100.00
70488;BME280;57976;48.174;16.370;2022-12-16T08:31:49;98196.75;;;2.65;100.00
70488;BME280;57976;48.174;16.370;2022-12-16T08:33:53;98191.66;;;2.65;100.00
70488;BME280;57976;48.174;16.370;2022-12-16T08:35:57;98199.18;;;2.64;100.00
70488;BME280;57976;48.174;16.370;2022-12-16T08:38:00;98202.88;;;2.63;100.00
70488;BME280;57976;48.174;16.370;2022-12-16T08:40:03;98207.65;;;2.60;100.00
70488;BME280;57976;48.174;16.370;2022-12-16T08:42:26;98209.98;;;2.62;100.00
70488;BME280;57976;48.174;16.370;2022-12-16T08:44:28;98213.06;;;2.63;100.00
70488;BME280;57976;48.174;16.370;2022-12-16T08:46:31;98209.02;;;2.63;100.00
70488;BME280;57976;48.174;16.370;2022-12-16T08:48:34;98217.63;;;2.67;100.00
70488;BME280;57976;48.174;16.370;2022-12-16T08:50:36;98224.64;;;2.69;100.00
70488;BME280;57976;48.174;16.370;2022-12-16T08:52:39;98229.11;;;2.70;100.00
70488;BME280;57976;48.174;16.370;2022-12-16T08:54:42;98238.45;;;2.69;100.00
70488;BME280;57976;48.174;16.370;2022-12-16T08:56:45;98244.56;;;2.69;100.00
70488;BME280;57976;48.174;16.370;2022-12-16T08:58:47;98251.11;;;2.72;100.00
70488;BME280;57976;48.174;16.370;2022-12-16T09:00:50;98254.06;;;2.69;100.00
70488;BME280;57976;48.174;16.370;2022-12-16T09:02:54;98257.49;;;2.67;100.00
70488;BME280;57976;48.174;16.370;2022-12-16T09:04:58;98252.30;;;2.63;100.00
70488;BME280;57976;48.174;16.370;2022-12-16T09:07:00;98253.48;;;2.59;100.00
70488;BME280;57976;48.174;16.370;2022-12-16T09:09:06;98260.09;;;2.58;100.00
70488;BME280;57976;48.174;16.370;2022-12-16T09:11:09;98264.77;;;2.61;100.00
70488;BME280;57976;48.174;16.370;2022-12-16T09:13:13;98263.59;;;2.64;100.00
70488;BME280;57976;48.174;16.370;2022-12-16T09:15:20;98272.11;;;2.65;100.00
70488;BME280;57976;48.174;16.370;2022-12-16T09:17:23;98272.48;;;2.63;100.00
70488;BME280;57976;48.174;16.370;2022-12-16T09:19:25;98275.98;;;2.62;100.00
70488;BME280;57976;48.174;16.370;2022-12-16T09:21:28;98280.67;;;2.62;100.00
70488;BME280;57976;48.174;16.370;2022-12-16T09:23:35;98286.96;;;2.61;100.00
70488;BME280;57976;48.174;16.370;2022-12-16T09:25:38;98291.16;;;2.63;100.00
70488;BME280;57976;48.174;16.370;2022-12-16T09:27:41;98294.19;;;2.68;100.00
70488;BME280;57976;48.174;16.370;2022-12-16T09:29:44;98300.78;;;2.70;100.00
70488;BME280;57976;48.174;16.370;2022-12-16T09:31:47;98305.42;;;2.69;100.00
70488;BME280;57976;48.174;16.370;2022-12-16T09:33:50;98302.59;;;2.69;100.00
70488;BME280;57976;48.174;16.370;2022-12-16T09:35:52;98302.35;;;2.71;100.00
70488;BME280;57976;48.174;16.370;2022-12-16T09:37:57;98298.06;;;2.71;100.00
70488;BME280;57976;48.174;16.370;2022-12-16T09:40:00;98290.49;;;2.66;100.00
70488;BME280;57976;48.174;16.370;2022-12-16T09:42:10;98293.85;;;2.64;100.00
70488;BME280;57976;48.174;16.370;2022-12-16T09:44:22;98283.52;;;2.60;100.00
70488;BME280;57976;48.174;16.370;2022-12-16T09:46:35;98283.33;;;2.57;100.00
70488;BME280;57976;48.174;16.370;2022-12-16T09:48:50;98282.12;;;2.55;100.00
70488;BME280;57976;48.174;16.370;2022-12-16T09:50:57;98283.70;;;2.55;100.00
70488;BME280;57976;48.174;16.370;2022-12-16T09:53:05;98285.17;;;2.56;100.00
70488;BME280;57976;48.174;16.370;2022-12-16T09:55:19;98290.91;;;2.58;100.00
70488;BME280;57976;48.174;16.370;2022-12-16T09:57:24;98278.42;;;2.59;100.00
70488;BME280;57976;48.174;16.370;2022-12-16T09:59:29;98279.48;;;2.59;100.00
70488;BME280;57976;48.174;16.370;2022-12-16T10:01:35;98274.16;;;2.59;100.00
70488;BME280;57976;48.174;16.370;2022-12-16T10:03:39;98277.25;;;2.63;100.00
70488;BME280;57976;48.174;16.370;2022-12-16T10:05:50;98290.98;;;2.67;100.00
70488;BME280;57976;48.174;16.370;2022-12-16T10:08:16;98290.85;;;2.66;100.00
70488;BME280;57976;48.174;16.370;2022-12-16T10:10:26;98294.42;;;2.72;100.00
70488;BME280;57976;48.174;16.370;2022-12-16T10:12:38;98286.90;;;2.76;100.00
70488;BME280;57976;48.174;16.370;2022-12-16T10:14:49;98286.02;;;2.76;100.00
70488;BME280;57976;48.174;16.370;2022-12-16T10:16:58;98292.88;;;2.79;100.00
70488;BME280;57976;48.174;16.370;2022-12-16T10:19:11;98294.03;;;2.84;100.00
70488;BME280;57976;48.174;16.370;2022-12-16T10:21:22;98292.67;;;2.88;100.00
70488;BME280;57976;48.174;16.370;2022-12-16T10:23:33;98290.86;;;2.93;100.00
70488;BME280;57976;48.174;16.370;2022-12-16T10:25:44;98299.74;;;2.99;100.00
70488;BME280;57976;48.174;16.370;2022-12-16T10:27:54;98297.20;;;3.05;100.00
70488;BME280;57976;48.174;16.370;2022-12-16T10:30:01;98286.65;;;3.06;100.00
70488;BME280;57976;48.174;16.370;2022-12-16T10:32:14;98280.14;;;3.08;100.00
70488;BME280;57976;48.174;16.370;2022-12-16T10:34:20;98281.02;;;3.10;100.00
70488;BME280;57976;48.174;16.370;2022-12-16T10:36:27;98279.77;;;3.11;100.00
70488;BME280;57976;48.174;16.370;2022-12-16T10:38:35;98279.33;;;3.13;100.00
70488;BME280;57976;48.174;16.370;2022-12-16T10:40:39;98280.15;;;3.14;99.21
70488;BME280;57976;48.174;16.370;2022-12-16T10:42:47;98286.89;;;3.13;98.72
70488;BME280;57976;48.174;16.370;2022-12-16T10:44:54;98301.30;;;3.13;98.62
70488;BME280;57976;48.174;16.370;2022-12-16T10:46:58;98307.54;;;3.14;98.31
70488;BME280;57976;48.174;16.370;2022-12-16T10:49:01;98309.78;;;3.14;97.92
70488;BME280;57976;48.174;16.370;2022-12-16T10:51:11;98308.71;;;3.16;97.77
70488;BME280;57976;48.174;16.370;2022-12-16T10:53:15;98314.41;;;3.18;98.38
70488;BME280;57976;48.174;16.370;2022-12-16T10:55:26;98327.35;;;3.22;98.72